createdAt,value
2022-10-23T00:01:42.186Z,17.80
2022-10-23T00:04:45.238Z,17.90
2022-10-23T00:07:56.524Z,17.75
2022-10-23T00:10:59.719Z,18.63
2022-10-23T00:14:07.676Z,19.95
2022-10-23T00:17:12.320Z,18.67
2022-10-23T00:20:17.572Z,18.70
2022-10-23T00:23:20.781Z,20.00
2022-10-23T00:26:25.366Z,20.10
2022-10-23T00:29:28.495Z,18.50
2022-10-23T00:35:35.459Z,19.90
2022-10-23T00:38:38.807Z,19.35
2022-10-23T00:41:42.965Z,19.67
2022-10-23T00:44:45.853Z,19.50
2022-10-23T00:47:49.563Z,18.85
2022-10-23T00:50:52.413Z,17.83
2022-10-23T00:54:23.071Z,18.33
2022-10-23T00:57:23.290Z,18.07
2022-10-23T01:00:32.020Z,17.62
2022-10-23T01:03:35.076Z,18.33
2022-10-23T01:06:55.539Z,17.37
2022-10-23T01:10:13.016Z,17.37
2022-10-23T01:13:28.523Z,16.63
2022-10-23T01:16:50.977Z,15.57
2022-10-23T01:20:14.223Z,16.87
2022-10-23T01:23:56.023Z,15.55
2022-10-23T01:27:28.025Z,15.75
2022-10-23T01:30:33.862Z,14.57
2022-10-23T01:33:44.964Z,15.00
2022-10-23T01:36:51.371Z,15.40
2022-10-23T01:40:01.547Z,14.40
2022-10-23T01:43:13.384Z,14.80
2022-10-23T01:46:18.089Z,13.97
2022-10-23T01:49:22.855Z,13.85
2022-10-23T01:52:26.983Z,14.27
2022-10-23T01:55:31.716Z,12.90
2022-10-23T01:58:36.620Z,14.02
2022-10-23T02:01:44.256Z,13.53
2022-10-23T02:05:03.522Z,13.70
2022-10-23T02:08:06.968Z,13.88
2022-10-23T02:11:13.607Z,14.20
2022-10-23T02:14:18.891Z,14.07
2022-10-23T02:17:31.312Z,13.90
2022-10-23T02:20:48.495Z,14.20
2022-10-23T02:23:59.563Z,15.75
2022-10-23T02:27:09.104Z,14.27
2022-10-23T02:30:16.157Z,15.20
2022-10-23T02:33:22.071Z,15.90
2022-10-23T02:36:25.133Z,14.52
2022-10-23T02:39:30.325Z,14.82
2022-10-23T02:42:49.084Z,15.32
2022-10-23T02:46:16.472Z,15.20
2022-10-23T02:49:44.368Z,14.20
2022-10-23T02:52:50.712Z,14.05
2022-10-23T02:56:26.139Z,13.68
2022-10-23T02:59:50.612Z,14.02
2022-10-23T03:03:04.002Z,14.57
2022-10-23T03:06:07.922Z,13.40
2022-10-23T03:09:14.361Z,12.95
2022-10-23T03:12:16.811Z,13.32
2022-10-23T03:15:19.916Z,13.73
2022-10-23T03:18:24.062Z,13.68
2022-10-23T03:21:26.970Z,12.87
2022-10-23T03:24:30.211Z,13.07
2022-10-23T03:27:33.813Z,14.13
2022-10-23T03:30:38.103Z,13.88
2022-10-23T03:33:43.322Z,14.77
2022-10-23T03:36:46.446Z,14.23
2022-10-23T03:39:50.281Z,14.55
2022-10-23T03:42:53.136Z,15.23
2022-10-23T03:45:57.394Z,14.38
2022-10-23T03:49:00.272Z,13.38
2022-10-23T03:52:03.173Z,13.97
2022-10-23T03:55:06.411Z,13.52
2022-10-23T03:58:09.909Z,13.73
2022-10-23T04:01:12.419Z,14.80
2022-10-23T04:04:17.289Z,14.70
2022-10-23T04:07:21.879Z,14.13
2022-10-23T04:10:30.561Z,13.88
2022-10-23T04:13:32.970Z,14.98
2022-10-23T04:16:36.542Z,13.62
2022-10-23T04:19:39.176Z,15.18
2022-10-23T04:22:42.315Z,14.10
2022-10-23T04:28:58.732Z,15.48
2022-10-23T04:32:04.491Z,15.88
2022-10-23T04:35:08.603Z,17.33
2022-10-23T04:38:11.618Z,15.87
2022-10-23T04:41:15.054Z,14.82
2022-10-23T04:44:23.933Z,15.38
2022-10-23T04:47:26.844Z,13.95
2022-10-23T04:50:30.229Z,15.25
2022-10-23T04:53:41.553Z,13.17
2022-10-23T04:56:45.184Z,13.02
2022-10-23T04:59:49.317Z,12.90
2022-10-23T05:02:53.951Z,12.60
2022-10-23T05:05:57.543Z,11.40
2022-10-23T05:09:04.114Z,10.87
2022-10-23T05:12:07.167Z,10.50
2022-10-23T05:15:11.904Z,10.10
2022-10-23T05:18:25.849Z,9.88
2022-10-23T05:21:34.582Z,9.18
2022-10-23T05:24:40.721Z,8.50
2022-10-23T05:27:46.130Z,8.80
2022-10-23T05:30:50.068Z,8.60
2022-10-23T05:33:55.564Z,9.05
2022-10-23T05:37:07.862Z,8.60
2022-10-23T05:40:18.454Z,9.10
2022-10-23T05:43:23.365Z,9.13
2022-10-23T05:46:28.001Z,9.88
2022-10-23T05:49:32.005Z,9.48
2022-10-23T05:52:43.140Z,9.40
2022-10-23T05:55:49.108Z,9.40
2022-10-23T05:59:01.304Z,9.02
2022-10-23T06:02:07.035Z,9.45
2022-10-23T06:05:14.140Z,9.15
2022-10-23T06:08:18.720Z,9.20
2022-10-23T06:11:24.953Z,9.03
2022-10-23T06:14:29.535Z,13.15
2022-10-23T06:17:43.498Z,11.48
2022-10-23T06:20:53.426Z,9.98
2022-10-23T06:23:59.211Z,9.38
2022-10-23T06:27:11.113Z,8.43
2022-10-23T06:30:18.154Z,9.95
2022-10-23T06:33:22.645Z,9.98
2022-10-23T06:36:33.991Z,8.77
2022-10-23T06:39:40.493Z,10.52
2022-10-23T06:42:56.995Z,9.23
2022-10-23T06:46:10.127Z,9.45
2022-10-23T06:49:22.927Z,10.13
2022-10-23T06:52:45.960Z,9.73
2022-10-23T06:56:01.977Z,10.15
2022-10-23T06:59:09.993Z,10.77
2022-10-23T07:02:14.149Z,12.35
2022-10-23T07:05:19.504Z,13.62
2022-10-23T07:08:26.960Z,12.37
2022-10-23T07:11:37.958Z,13.95
2022-10-23T07:14:41.775Z,13.20
2022-10-23T07:17:44.681Z,12.73
2022-10-23T07:20:58.194Z,13.20
2022-10-23T07:24:04.035Z,12.68
2022-10-23T07:27:09.538Z,13.73
2022-10-23T07:30:19.626Z,13.40
2022-10-23T07:33:35.210Z,13.35
2022-10-23T07:36:40.978Z,15.02
2022-10-23T07:39:51.893Z,13.62
2022-10-23T07:43:02.971Z,14.35
2022-10-23T07:46:08.917Z,14.47
2022-10-23T07:49:13.151Z,15.07
2022-10-23T07:52:16.842Z,14.65
2022-10-23T07:55:25.972Z,14.15
2022-10-23T07:58:33.511Z,14.50
2022-10-23T08:01:39.484Z,13.97
2022-10-23T08:04:44.102Z,14.87
2022-10-23T08:07:55.970Z,14.55
2022-10-23T08:10:59.315Z,14.60
2022-10-23T08:14:08.575Z,16.10
2022-10-23T08:17:33.159Z,16.00
2022-10-23T08:20:46.894Z,15.77
2022-10-23T08:24:00.096Z,17.52
2022-10-23T08:27:10.166Z,17.58
2022-10-23T08:30:17.144Z,22.37
2022-10-23T08:33:22.986Z,18.63
2022-10-23T08:36:29.524Z,19.12
2022-10-23T08:39:39.424Z,18.55
2022-10-23T08:42:47.176Z,17.42
2022-10-23T08:46:02.646Z,17.45
2022-10-23T08:49:29.964Z,14.63
2022-10-23T08:52:55.151Z,14.40
2022-10-23T08:56:28.136Z,14.30
2022-10-23T08:59:44.103Z,13.02
2022-10-23T09:02:50.944Z,14.90
2022-10-23T09:06:20.178Z,15.50
2022-10-23T09:09:33.123Z,15.75
2022-10-23T09:12:39.391Z,17.40
2022-10-23T09:15:53.120Z,18.02
2022-10-23T09:18:58.876Z,19.30
2022-10-23T09:22:04.046Z,18.07
2022-10-23T09:25:15.128Z,20.37
2022-10-23T09:28:27.559Z,20.25
2022-10-23T09:31:33.100Z,18.37
2022-10-23T09:34:40.146Z,18.05
2022-10-23T09:37:54.185Z,13.30
2022-10-23T09:41:04.210Z,13.20
2022-10-23T09:44:09.006Z,12.15
2022-10-23T09:47:20.820Z,11.30
2022-10-23T09:50:26.139Z,11.68
2022-10-23T09:53:35.927Z,11.20
2022-10-23T09:56:43.081Z,11.43
2022-10-23T09:59:55.984Z,11.10
2022-10-23T10:03:06.363Z,11.05
2022-10-23T10:06:37.907Z,11.73
2022-10-23T10:09:47.965Z,11.50
2022-10-23T10:12:59.458Z,12.55
2022-10-23T10:16:16.998Z,11.88
2022-10-23T10:19:48.952Z,13.07
2022-10-23T10:23:27.078Z,12.43
2022-10-23T10:26:57.968Z,11.97
2022-10-23T10:30:21.270Z,12.45
2022-10-23T10:33:41.017Z,12.68
2022-10-23T10:37:03.026Z,14.10
2022-10-23T10:40:16.929Z,14.00
2022-10-23T10:43:44.439Z,13.50
2022-10-23T10:46:55.225Z,12.25
2022-10-23T10:50:15.993Z,11.00
2022-10-23T10:53:58.876Z,10.85
2022-10-23T10:57:40.962Z,10.82
2022-10-23T11:00:54.016Z,10.27
2022-10-23T11:04:31.955Z,10.13
2022-10-23T11:07:44.488Z,11.35
2022-10-23T11:14:37.322Z,11.50
2022-10-23T11:22:13.978Z,10.10
2022-10-23T11:25:47.986Z,10.40
2022-10-23T11:29:18.976Z,9.85
2022-10-23T11:36:07.331Z,10.13
2022-10-23T11:39:19.989Z,9.45
2022-10-23T11:42:46.888Z,9.80
2022-10-23T11:45:57.889Z,10.10
2022-10-23T11:52:27.360Z,10.83
2022-10-23T11:55:32.957Z,11.02
2022-10-23T11:59:02.973Z,11.52
2022-10-23T12:02:39.347Z,11.38
2022-10-23T12:05:45.899Z,10.40
2022-10-23T12:08:54.969Z,9.57
2022-10-23T12:12:09.580Z,9.65
2022-10-23T12:15:19.359Z,10.40
2022-10-23T12:18:24.940Z,9.48
2022-10-23T12:21:42.044Z,9.65
2022-10-23T12:24:53.061Z,9.60
2022-10-23T12:28:05.987Z,10.77
2022-10-23T12:31:20.000Z,10.15
2022-10-23T12:34:26.416Z,11.02
2022-10-23T12:37:50.195Z,12.25
2022-10-23T12:41:07.974Z,11.67
2022-10-23T12:44:18.989Z,11.77
2022-10-23T12:47:22.327Z,12.27
2022-10-23T12:50:30.119Z,12.43
2022-10-23T12:53:35.114Z,13.32
2022-10-23T12:56:44.126Z,11.30
2022-10-23T12:59:47.441Z,10.70
2022-10-23T13:03:00.944Z,10.43
2022-10-23T13:06:06.975Z,10.10
2022-10-23T13:09:25.116Z,8.98
2022-10-23T13:12:37.177Z,8.93
2022-10-23T13:15:48.110Z,8.98
2022-10-23T13:18:54.951Z,9.38
2022-10-23T13:22:14.963Z,8.70
2022-10-23T13:25:29.090Z,9.20
2022-10-23T13:28:47.921Z,7.70
2022-10-23T13:31:56.881Z,7.47
2022-10-23T13:35:17.311Z,7.07
2022-10-23T13:38:36.371Z,7.07
2022-10-23T13:41:44.958Z,7.28
2022-10-23T13:44:48.362Z,7.20
2022-10-23T13:47:52.929Z,6.57
2022-10-23T13:51:16.549Z,6.68
2022-10-23T13:54:25.136Z,6.72
2022-10-23T13:57:28.904Z,8.10
2022-10-23T14:00:34.217Z,6.67
2022-10-23T14:03:45.107Z,7.28
2022-10-23T14:06:49.020Z,6.75
2022-10-23T14:09:52.826Z,6.57
2022-10-23T14:12:58.193Z,6.20
2022-10-23T14:16:02.982Z,6.37
2022-10-23T14:19:23.579Z,6.80
2022-10-23T14:22:34.039Z,7.72
2022-10-23T14:25:44.985Z,8.45
2022-10-23T14:28:59.571Z,9.68
2022-10-23T14:32:06.556Z,10.10
2022-10-23T14:35:25.882Z,10.35
2022-10-23T14:38:41.006Z,8.60
2022-10-23T14:41:57.504Z,10.55
2022-10-23T14:45:09.133Z,8.77
2022-10-23T14:48:14.204Z,16.33
2022-10-23T14:51:27.936Z,76.03
2022-10-23T14:54:35.075Z,23.98
2022-10-23T14:57:41.073Z,28.02
2022-10-23T15:01:11.134Z,17.27
2022-10-23T15:04:29.971Z,10.47
2022-10-23T15:07:35.232Z,67.95
2022-10-23T15:10:40.069Z,93.62
2022-10-23T15:13:55.485Z,68.10
2022-10-23T15:16:59.115Z,44.83
2022-10-23T15:20:18.038Z,29.77
2022-10-23T15:23:24.397Z,18.75
2022-10-23T15:26:36.943Z,17.10
2022-10-23T15:29:53.287Z,16.70
2022-10-23T15:33:02.134Z,12.30
2022-10-23T15:36:13.265Z,11.37
2022-10-23T15:39:20.337Z,10.88
2022-10-23T15:42:25.149Z,9.35
2022-10-23T15:45:34.145Z,9.00
2022-10-23T15:48:39.954Z,9.40
2022-10-23T15:51:46.998Z,94.23
2022-10-23T15:55:00.120Z,49.50
2022-10-23T15:58:05.634Z,12.63
2022-10-23T16:01:15.283Z,10.90
2022-10-23T16:04:21.420Z,6.20
2022-10-23T16:07:30.236Z,5.23
2022-10-23T16:10:43.953Z,3.60
2022-10-23T16:13:50.001Z,2.50
2022-10-23T16:17:01.041Z,2.20
2022-10-23T16:20:06.957Z,2.80
2022-10-23T16:23:15.923Z,2.67
2022-10-23T16:26:25.109Z,2.80
2022-10-23T16:29:31.933Z,3.47
2022-10-23T16:32:38.166Z,5.43
2022-10-23T16:35:55.328Z,5.30
2022-10-23T16:38:59.631Z,5.30
2022-10-23T16:42:20.226Z,4.50
2022-10-23T16:45:28.115Z,4.10
2022-10-23T16:48:36.348Z,4.10
2022-10-23T16:51:46.967Z,4.15
2022-10-23T16:54:51.372Z,3.30
2022-10-23T16:58:02.125Z,3.60
2022-10-23T17:01:24.073Z,3.75
2022-10-23T17:04:39.033Z,4.15
2022-10-23T17:07:46.092Z,3.95
2022-10-23T17:11:12.762Z,4.73
2022-10-23T17:14:21.356Z,4.28
2022-10-23T17:17:28.927Z,3.97
2022-10-23T17:20:35.117Z,3.83
2022-10-23T17:23:38.955Z,4.32
2022-10-23T17:26:50.082Z,5.03
2022-10-23T17:30:04.075Z,4.95
2022-10-23T17:33:08.946Z,4.25
2022-10-23T17:36:16.201Z,3.83
2022-10-23T17:39:27.000Z,4.53
2022-10-23T17:42:35.987Z,3.90
2022-10-23T17:45:42.984Z,4.55
2022-10-23T17:52:05.372Z,6.40
2022-10-23T17:55:13.404Z,5.07
2022-10-23T17:58:19.137Z,4.67
2022-10-23T18:01:25.842Z,4.80
2022-10-23T18:04:37.239Z,4.75
2022-10-23T18:07:42.429Z,4.35
2022-10-23T18:10:47.920Z,5.40
2022-10-23T18:14:05.382Z,4.80
2022-10-23T18:17:10.938Z,5.95
2022-10-23T18:20:23.304Z,5.20
2022-10-23T18:23:35.327Z,5.75
2022-10-23T18:26:41.055Z,6.03
2022-10-23T18:29:44.955Z,5.57
2022-10-23T18:33:01.951Z,6.37
2022-10-23T18:36:26.146Z,5.97
2022-10-23T18:39:31.924Z,6.90
2022-10-23T18:42:36.974Z,6.78
2022-10-23T18:45:42.573Z,7.37
2022-10-23T18:48:52.157Z,7.20
2022-10-23T18:52:09.274Z,6.90
2022-10-23T18:55:19.997Z,7.78
2022-10-23T18:58:24.481Z,7.37
2022-10-23T19:01:40.966Z,7.80
2022-10-23T19:04:46.052Z,7.45
2022-10-23T19:08:06.866Z,7.40
2022-10-23T19:11:27.930Z,7.80
2022-10-23T19:14:40.478Z,7.85
2022-10-23T19:17:53.928Z,7.50
2022-10-23T19:21:00.411Z,7.50
2022-10-23T19:24:10.944Z,8.40
2022-10-23T19:27:15.137Z,7.55
2022-10-23T19:30:22.695Z,7.37
2022-10-23T19:33:41.525Z,7.13
2022-10-23T19:36:47.757Z,8.02
2022-10-23T19:39:52.944Z,7.20
2022-10-23T19:42:56.386Z,8.23
2022-10-23T19:46:09.351Z,7.68
2022-10-23T19:49:24.507Z,7.23
2022-10-23T19:52:27.832Z,7.97
2022-10-23T19:55:31.747Z,8.27
2022-10-23T19:58:35.980Z,7.80
2022-10-23T20:01:40.686Z,7.75
2022-10-23T20:05:02.010Z,7.53
2022-10-23T20:08:05.949Z,7.60
2022-10-23T20:11:17.908Z,8.82
2022-10-23T20:14:26.053Z,8.10
2022-10-23T20:17:32.194Z,8.23
2022-10-23T20:20:41.987Z,8.83
2022-10-23T20:23:57.147Z,9.98
2022-10-23T20:27:02.501Z,11.38
2022-10-23T20:30:08.953Z,11.35
2022-10-23T20:33:12.355Z,10.10
2022-10-23T20:36:27.038Z,9.47
2022-10-23T20:39:35.766Z,11.60
2022-10-23T20:42:41.991Z,10.13
2022-10-23T20:45:48.891Z,9.68
2022-10-23T20:48:54.091Z,9.70
2022-10-23T20:51:58.212Z,10.20
2022-10-23T20:55:01.065Z,9.18
2022-10-23T20:58:07.406Z,10.50
2022-10-23T21:01:17.087Z,10.43
2022-10-23T21:04:25.208Z,9.83
2022-10-23T21:07:28.754Z,9.70
2022-10-23T21:10:31.262Z,9.38
2022-10-23T21:13:34.502Z,9.77
2022-10-23T21:16:44.920Z,9.40
2022-10-23T21:19:48.009Z,9.67
2022-10-23T21:22:57.603Z,11.43
2022-10-23T21:26:06.187Z,14.75
2022-10-23T21:29:18.663Z,15.23
2022-10-23T21:32:23.014Z,12.00
2022-10-23T21:35:27.862Z,9.37
2022-10-23T21:38:32.950Z,10.07
2022-10-23T21:41:35.872Z,11.35
2022-10-23T21:44:41.896Z,10.88
2022-10-23T21:47:45.045Z,10.52
2022-10-23T21:53:54.563Z,8.93
2022-10-23T21:56:59.360Z,8.57
2022-10-23T22:00:06.125Z,9.43
2022-10-23T22:03:16.246Z,9.30
2022-10-23T22:06:25.755Z,8.40
2022-10-23T22:09:28.835Z,9.23
2022-10-23T22:12:32.075Z,8.80
2022-10-23T22:15:34.655Z,8.65
2022-10-23T22:18:38.178Z,9.02
2022-10-23T22:21:41.327Z,9.60
2022-10-23T22:24:45.108Z,9.17
2022-10-23T22:27:48.578Z,8.95
2022-10-23T22:30:52.317Z,9.90
2022-10-23T22:33:57.289Z,10.40
2022-10-23T22:37:00.742Z,11.23
2022-10-23T22:40:04.675Z,12.27
2022-10-23T22:43:07.519Z,11.65
2022-10-23T22:46:14.276Z,9.90
2022-10-23T22:49:17.080Z,9.82
2022-10-23T22:52:19.993Z,10.37
2022-10-23T22:55:23.466Z,10.97
2022-10-23T22:58:29.072Z,9.93
2022-10-23T23:01:35.820Z,9.82
2022-10-23T23:04:39.370Z,10.68
2022-10-23T23:07:42.563Z,10.37
2022-10-23T23:10:54.269Z,10.00
2022-10-23T23:13:57.221Z,11.23
2022-10-23T23:16:59.948Z,11.32
2022-10-23T23:20:03.796Z,13.82
2022-10-23T23:23:06.934Z,14.47
2022-10-23T23:26:12.041Z,13.00
2022-10-23T23:29:15.308Z,12.48
2022-10-23T23:32:18.507Z,12.90
2022-10-23T23:35:21.130Z,12.95
2022-10-23T23:38:24.268Z,12.20
2022-10-23T23:41:28.526Z,13.53
2022-10-23T23:44:31.857Z,12.68
2022-10-23T23:47:34.457Z,12.95
2022-10-23T23:50:37.777Z,13.68
2022-10-23T23:53:40.940Z,13.83
2022-10-23T23:56:43.665Z,14.17
2022-10-23T23:59:46.122Z,13.25
